Time;durP1;ratioP1;P1;durP2;ratioP2;P2;SDS_P1;SDS_P2;PMS_P1;PMS_P2;Temp;Humidity;BMP_temperature;BMP_pressure;BME280_temperature;BME280_humidity;BME280_pressure;Samples;Min_cycle;Max_cycle;Signal;HPM_P1;HPM_P2
2021/04/10 00:01:32;;;;;;;3.92;2.50;;;;;;;4.23;38.84;100594.88;5011009;28;20041;-61
2021/04/10 00:03:59;;;;;;;6.50;2.95;;;;;;;4.70;39.53;100676.88;5012384;28;20034;-62
2021/04/10 00:06:24;;;;;;;10.43;3.35;;;;;;;4.60;39.28;100656.97;5012652;28;20131;-62
2021/04/10 00:08:50;;;;;;;5.60;3.17;;;;;;;4.70;39.53;100676.88;5011127;28;20123;-62
2021/04/10 00:11:15;;;;;;;8.23;2.97;;;;;;;4.67;39.83;100679.66;5012196;28;20041;-60
2021/04/10 00:13:41;;;;;;;7.50;3.60;;;;;;;4.64;39.75;100685.09;5012364;28;20116;-61
2021/04/10 00:16:06;;;;;;;5.43;3.28;;;;;;;4.64;39.47;100681.56;5012005;28;20030;-62
2021/04/10 00:18:32;;;;;;;4.93;2.95;;;;;;;4.23;39.79;100621.38;5008827;28;20034;-62
2021/04/10 00:20:57;;;;;;;9.75;3.20;;;;;;;4.32;39.66;100636.91;5008354;28;20474;-58
2021/04/10 00:23:23;;;;;;;5.97;2.85;;;;;;;4.16;40.05;100615.47;5010405;28;20041;-62
2021/04/10 00:25:48;;;;;;;8.05;2.80;;;;;;;4.54;40.18;100678.44;5012013;28;20036;-61
2021/04/10 00:28:28;;;;;;;6.28;2.95;;;;;;;4.52;39.77;100680.28;5010615;28;20081;-57
2021/04/10 00:31:06;;;;;;;5.38;3.00;;;;;;;4.41;40.17;100681.59;5012131;28;20077;-59
2021/04/10 00:33:39;;;;;;;5.15;2.90;;;;;;;4.44;39.75;100683.25;5011893;28;20038;-59
2021/04/10 00:36:11;;;;;;;5.68;3.20;;;;;;;4.41;40.14;100678.06;5011626;28;20087;-61
2021/04/10 00:38:38;;;;;;;8.20;3.10;;;;;;;4.41;39.87;100692.22;5006983;28;20033;-58
2021/04/10 00:41:07;;;;;;;5.47;2.75;;;;;;;4.38;40.36;100695.00;5013808;28;20493;-60
2021/04/10 00:43:32;;;;;;;5.95;2.88;;;;;;;4.34;40.78;100682.78;5027681;28;20065;-60
2021/04/10 00:45:58;;;;;;;5.72;3.20;;;;;;;4.32;40.78;100684.63;5029073;28;20095;-60
2021/04/10 00:48:23;;;;;;;5.40;3.22;;;;;;;4.27;40.54;100689.25;5020770;28;20456;-60
2021/04/10 00:50:51;;;;;;;5.18;3.05;;;;;;;4.31;40.85;100688.19;5008990;28;20422;-60
2021/04/10 00:53:18;;;;;;;7.15;3.25;;;;;;;4.20;40.83;100693.09;5009324;28;20033;-60
2021/04/10 00:55:45;;;;;;;6.13;3.17;;;;;;;4.31;40.78;100688.19;5009450;28;20041;-60
2021/04/10 00:58:11;;;;;;;5.78;2.83;;;;;;;4.29;40.86;100696.22;5011285;28;20034;-61
2021/04/10 01:00:38;;;;;;;7.38;3.42;;;;;;;4.19;41.80;100680.75;5011447;28;20402;-61
2021/04/10 01:03:04;;;;;;;5.40;3.05;;;;;;;4.27;41.40;100684.81;5011236;28;20508;-60
2021/04/10 01:05:29;;;;;;;6.88;3.08;;;;;;;4.32;41.16;100684.63;5011445;28;20034;-57
2021/04/10 01:07:55;;;;;;;4.82;3.00;;;;;;;4.20;41.04;100679.84;5026232;28;20037;-60
2021/04/10 01:10:21;;;;;;;10.32;3.47;;;;;;;4.27;41.43;100689.25;5021155;28;20124;-62
2021/04/10 01:13:03;;;;;;;7.20;3.05;;;;;;;4.27;42.02;100694.56;5030575;28;20029;-61
2021/04/10 01:15:31;;;;;;;5.90;3.00;;;;;;;4.32;41.70;100700.53;5030795;28;20037;-62
2021/04/10 01:18:03;;;;;;;5.18;2.85;;;;;;;4.27;41.71;100700.72;5030893;28;20030;-62
2021/04/10 01:21:01;;;;;;;6.53;3.05;;;;;;;4.29;41.66;100690.03;5030607;28;20116;-61
2021/04/10 01:23:52;;;;;;;5.75;2.78;;;;;;;4.37;42.26;100695.03;5031135;28;20509;-61
2021/04/10 01:26:44;;;;;;;6.72;2.97;;;;;;;4.40;42.11;100709.06;5028985;28;20033;-61
2021/04/10 01:29:13;;;;;;;6.07;2.88;;;;;;;4.31;41.95;100694.38;5010730;28;20057;-62
2021/04/10 01:31:44;;;;;;;5.95;2.42;;;;;;;4.36;42.22;100709.22;5010971;28;20037;-60
2021/04/10 01:34:29;;;;;;;3.95;2.53;;;;;;;4.42;42.21;100709.84;5010518;28;20450;-61
2021/04/10 01:37:02;;;;;;;6.47;3.35;;;;;;;4.35;42.30;100711.03;5010710;28;20452;-60
2021/04/10 01:39:31;;;;;;;9.10;3.30;;;;;;;4.38;42.04;100699.41;5006641;28;20033;-60
2021/04/10 01:41:57;;;;;;;5.25;2.90;;;;;;;4.34;41.71;100704.00;5008771;28;20046;-60
2021/04/10 01:44:24;;;;;;;5.82;2.75;;;;;;;4.31;41.75;100707.63;5008489;28;20223;-62
2021/04/10 01:46:52;;;;;;;4.65;3.00;;;;;;;4.28;42.30;100694.50;5008341;28;20034;-60
2021/04/10 01:49:17;;;;;;;6.90;3.10;;;;;;;4.29;42.48;100700.66;5008528;28;20425;-60
2021/04/10 01:51:43;;;;;;;5.60;2.80;;;;;;;4.16;42.09;100690.56;5008486;28;20097;-59
2021/04/10 01:54:10;;;;;;;6.07;3.10;;;;;;;4.23;42.41;100712.38;5023624;28;20651;-60
2021/04/10 01:56:43;;;;;;;4.65;2.72;;;;;;;4.22;42.83;100712.44;5007329;28;20065;-61
2021/04/10 01:59:12;;;;;;;6.93;3.05;;;;;;;3.76;42.16;100630.34;5010221;28;20040;-61
2021/04/10 02:01:40;;;;;;;4.30;3.10;;;;;;;4.29;42.84;100703.31;5010577;28;20041;-62
2021/04/10 02:04:08;;;;;;;6.05;2.63;;;;;;;3.78;42.38;100626.69;5010682;28;20026;-63
2021/04/10 02:06:34;;;;;;;7.20;2.92;;;;;;;4.28;42.33;100709.53;5010294;28;20092;-62
2021/04/10 02:09:00;;;;;;;4.47;3.00;;;;;;;4.22;42.73;100700.06;5010699;28;20025;-62
2021/04/10 02:11:27;;;;;;;7.57;2.72;;;;;;;4.26;42.88;100706.09;5010292;28;20046;-63
2021/04/10 02:13:53;;;;;;;5.72;3.17;;;;;;;4.23;42.90;100698.25;5010122;28;20038;-62
2021/04/10 02:16:20;;;;;;;7.20;3.55;;;;;;;4.16;43.09;100706.47;5010405;28;20030;-63
2021/04/10 02:18:47;;;;;;;7.03;3.20;;;;;;;4.23;42.92;100716.81;5013184;28;20041;-64
2021/04/10 02:21:13;;;;;;;8.52;3.03;;;;;;;4.25;42.67;100715.84;5014363;28;20041;-62
2021/04/10 02:23:40;;;;;;;11.90;3.55;;;;;;;4.01;43.45;100675.25;5014280;28;20493;-63
2021/04/10 02:26:07;;;;;;;6.13;3.03;;;;;;;3.85;43.58;100638.75;5014202;28;20037;-63
2021/04/10 02:28:33;;;;;;;6.32;3.10;;;;;;;3.75;43.06;100637.41;5012676;28;20403;-58
2021/04/10 02:31:01;;;;;;;7.38;3.17;;;;;;;4.15;43.48;100704.75;5014544;28;20053;-64
2021/04/10 02:33:32;;;;;;;5.25;2.95;;;;;;;4.24;43.45;100715.88;5014252;28;20046;-64
2021/04/10 02:35:59;;;;;;;8.40;3.35;;;;;;;3.78;43.49;100629.34;5013978;28;20041;-63
2021/04/10 02:38:26;;;;;;;7.28;3.17;;;;;;;4.24;43.40;100711.47;5011270;28;20435;-61
2021/04/10 02:41:10;;;;;;;12.25;3.55;;;;;;;4.25;44.00;100714.97;5011064;28;20517;-61
2021/04/10 02:43:39;;;;;;;7.00;3.15;;;;;;;4.29;43.24;100721.84;5011439;28;20474;-59
2021/04/10 02:46:06;;;;;;;11.07;3.60;;;;;;;4.11;43.60;100695.19;5013615;28;20034;-62
2021/04/10 02:48:43;;;;;;;8.50;2.88;;;;;;;3.92;43.66;100665.03;5013981;28;20553;-65
2021/04/10 02:51:09;;;;;;;6.20;3.20;;;;;;;4.21;43.13;100718.66;5013983;28;20069;-63
2021/04/10 02:53:38;;;;;;;8.20;3.35;;;;;;;4.24;43.81;100716.75;5013723;28;20112;-64
2021/04/10 02:56:06;;;;;;;7.20;2.97;;;;;;;4.20;43.79;100712.47;5013662;28;20091;-59
2021/04/10 02:58:32;;;;;;;7.72;3.42;;;;;;;4.34;43.11;100719.91;5013703;28;20457;-64
2021/04/10 03:00:58;;;;;;;5.95;3.08;;;;;;;3.83;43.53;100635.31;5013540;28;20438;-63
2021/04/10 03:03:25;;;;;;;8.40;3.47;;;;;;;4.22;43.30;100689.47;5012348;28;20132;-61
2021/04/10 03:05:52;;;;;;;7.78;3.13;;;;;;;4.35;43.71;100711.03;5013378;28;20030;-62
2021/04/10 03:08:20;;;;;;;8.05;3.17;;;;;;;4.43;43.17;100718.66;5012071;28;20075;-63
2021/04/10 03:10:49;;;;;;;7.35;3.38;;;;;;;4.40;43.20;100713.47;5013472;28;20038;-63
2021/04/10 03:13:17;;;;;;;12.07;3.53;;;;;;;4.30;42.93;100666.13;5013475;28;20032;-65
2021/04/10 03:15:43;;;;;;;7.20;3.05;;;;;;;4.66;43.03;100724.81;5010391;28;20128;-64
2021/04/10 03:18:10;;;;;;;6.68;3.42;;;;;;;4.77;42.32;100713.75;5009070;28;20037;-63
2021/04/10 03:20:36;;;;;;;7.50;3.75;;;;;;;4.90;42.16;100728.22;5011304;28;20391;-66
2021/04/10 03:23:02;;;;;;;8.52;3.60;;;;;;;4.86;42.22;100702.75;5013216;28;20074;-63
2021/04/10 03:25:28;;;;;;;6.13;3.60;;;;;;;5.27;41.64;100737.25;5013529;28;20037;-64
2021/04/10 03:27:53;;;;;;;8.25;3.45;;;;;;;5.69;40.91;100718.59;5011445;28;20068;-63
2021/04/10 03:30:20;;;;;;;8.50;3.80;;;;;;;6.65;39.31;100726.53;5012499;28;20037;-62
2021/04/10 03:32:46;;;;;;;6.53;3.42;;;;;;;7.64;37.62;100731.22;5012255;28;20410;-64
2021/04/10 03:35:13;;;;;;;4.97;3.08;;;;;;;8.68;35.67;100737.06;5013020;28;20038;-63
2021/04/10 03:37:39;;;;;;;8.93;3.10;;;;;;;9.56;33.91;100720.22;5012125;28;20195;-62
2021/04/10 03:40:05;;;;;;;7.38;2.90;;;;;;;10.45;32.22;100723.56;5009216;28;20034;-61
2021/04/10 03:42:40;;;;;;;7.88;3.20;;;;;;;11.32;30.21;100717.72;5010567;28;20060;-62
2021/04/10 03:45:09;;;;;;;8.23;3.05;;;;;;;12.01;29.42;100721.91;5009491;28;20041;-60
2021/04/10 03:47:35;;;;;;;9.77;3.10;;;;;;;12.73;28.64;100724.75;5009886;28;20409;-60
2021/04/10 03:50:00;;;;;;;5.10;3.00;;;;;;;13.31;27.74;100724.78;5010250;28;20038;-62
2021/04/10 03:52:27;;;;;;;5.90;3.20;;;;;;;13.89;26.80;100718.47;5009054;28;20041;-63
2021/04/10 03:54:52;;;;;;;9.93;3.47;;;;;;;14.53;25.93;100737.56;5008092;28;20304;-62
2021/04/10 03:57:18;;;;;;;6.13;3.67;;;;;;;15.17;25.08;100735.00;5009668;28;20045;-61
2021/04/10 03:59:43;;;;;;;11.23;3.92;;;;;;;15.81;24.52;100737.63;5017652;28;20124;-62
2021/04/10 04:02:10;;;;;;;6.22;3.30;;;;;;;16.37;23.61;100722.75;5029415;28;20046;-60
2021/04/10 04:04:35;;;;;;;9.50;3.78;;;;;;;16.90;22.88;100735.03;5020472;28;20037;-61
2021/04/10 04:07:03;;;;;;;8.38;3.50;;;;;;;17.29;22.32;100733.31;5008786;28;20038;-62
2021/04/10 04:09:28;;;;;;;4.55;3.10;;;;;;;17.69;21.79;100734.88;5010390;28;20074;-62
2021/04/10 04:11:54;;;;;;;4.78;3.38;;;;;;;18.12;21.12;100719.06;5007524;28;20080;-61
2021/04/10 04:14:19;;;;;;;7.07;3.50;;;;;;;18.56;20.47;100714.75;5008788;28;20025;-62
2021/04/10 04:16:45;;;;;;;8.20;3.42;;;;;;;19.34;19.81;100729.50;5010048;28;20036;-62
2021/04/10 04:19:10;;;;;;;7.53;3.70;;;;;;;19.51;19.28;100674.28;5009492;28;20040;-60
2021/04/10 04:21:36;;;;;;;7.70;3.60;;;;;;;20.40;18.41;100727.47;5009736;28;20049;-64
2021/04/10 04:24:02;;;;;;;9.02;3.80;;;;;;;20.79;17.81;100731.44;5008527;28;20045;-63
2021/04/10 04:26:28;;;;;;;8.57;3.75;;;;;;;21.43;17.24;100714.41;5008697;28;20046;-59
2021/04/10 04:28:54;;;;;;;5.15;3.83;;;;;;;21.75;16.81;100690.84;5008469;28;20135;-60
2021/04/10 04:31:20;;;;;;;6.10;4.00;;;;;;;22.51;16.36;100727.63;5009426;28;20045;-62
2021/04/10 04:33:47;;;;;;;8.30;3.78;;;;;;;22.92;15.82;100712.84;5009148;28;20506;-64
2021/04/10 04:36:12;;;;;;;7.22;4.10;;;;;;;23.28;15.43;100727.75;5009393;28;20034;-63
2021/04/10 04:38:38;;;;;;;9.98;4.53;;;;;;;23.37;15.27;100722.00;5009392;28;20509;-61
2021/04/10 04:41:03;;;;;;;10.73;4.25;;;;;;;23.28;14.72;100679.41;5008599;28;20402;-55
2021/04/10 04:43:29;;;;;;;10.43;4.18;;;;;;;23.79;14.36;100729.75;5009951;28;20172;-63
2021/04/10 04:45:54;;;;;;;7.30;4.10;;;;;;;24.10;14.45;100719.66;5011334;28;20044;-63
2021/04/10 04:48:20;;;;;;;9.35;4.15;;;;;;;24.37;13.63;100709.91;5010112;28;20490;-61
2021/04/10 04:50:45;;;;;;;6.85;4.05;;;;;;;24.80;13.30;100725.50;5011328;28;20034;-63
2021/04/10 04:53:10;;;;;;;5.68;4.03;;;;;;;25.19;13.23;100729.63;5011099;28;20034;-64
2021/04/10 04:55:36;;;;;;;5.50;3.65;;;;;;;25.64;12.52;100731.22;5011050;28;20121;-59
2021/04/10 04:58:01;;;;;;;9.63;3.83;;;;;;;26.08;12.47;100723.66;5011612;28;20375;-62
2021/04/10 05:00:27;;;;;;;6.35;3.97;;;;;;;26.68;11.83;100727.66;5011068;28;20046;-63
2021/04/10 05:02:53;;;;;;;6.07;3.72;;;;;;;27.12;11.26;100720.72;5010882;28;20137;-60
2021/04/10 05:05:18;;;;;;;7.40;4.28;;;;;;;27.71;11.06;100723.63;5011122;28;20397;-63
2021/04/10 05:07:44;;;;;;;7.13;3.50;;;;;;;28.04;10.56;100717.16;5010921;28;20147;-62
2021/04/10 05:10:10;;;;;;;8.23;3.83;;;;;;;28.64;10.33;100726.19;5010489;28;20044;-62
2021/04/10 05:12:35;;;;;;;6.10;3.42;;;;;;;29.02;9.78;100722.56;5010049;28;20040;-62
2021/04/10 05:15:01;;;;;;;6.53;3.45;;;;;;;29.43;9.59;100727.75;5011409;28;20510;-64
2021/04/10 05:17:26;;;;;;;4.63;3.20;;;;;;;29.61;9.38;100735.19;5010960;28;20033;-65
2021/04/10 05:19:52;;;;;;;5.10;3.00;;;;;;;29.92;9.17;100714.88;5010679;28;20040;-63
2021/04/10 05:22:17;;;;;;;4.50;3.10;;;;;;;30.14;8.70;100725.44;5011280;28;20510;-64
2021/04/10 05:24:43;;;;;;;4.82;3.25;;;;;;;30.34;8.71;100722.41;5010936;28;20482;-63
2021/04/10 05:27:08;;;;;;;6.35;3.63;;;;;;;30.63;8.17;100705.25;5008300;28;20083;-61
2021/04/10 05:29:34;;;;;;;4.95;3.17;;;;;;;30.81;7.99;100726.44;5010402;28;20046;-59
2021/04/10 05:32:01;;;;;;;10.23;3.08;;;;;;;30.88;8.31;100718.03;5009342;28;20041;-63
2021/04/10 05:34:26;;;;;;;5.65;3.40;;;;;;;31.27;7.82;100715.69;5010627;28;20121;-64
2021/04/10 05:36:52;;;;;;;5.35;3.05;;;;;;;31.61;7.42;100707.63;5010016;28;20124;-64
2021/04/10 05:39:17;;;;;;;5.85;2.70;;;;;;;32.14;7.48;100702.06;5010715;28;20482;-64
2021/04/10 05:41:42;;;;;;;7.18;3.33;;;;;;;32.46;6.94;100712.66;5010441;28;20055;-62
2021/04/10 05:44:08;;;;;;;6.85;3.83;;;;;;;32.64;6.90;100716.31;5010465;28;20059;-63
2021/04/10 05:46:33;;;;;;;6.80;3.47;;;;;;;32.58;6.74;100709.00;5010327;28;20038;-54
2021/04/10 05:48:59;;;;;;;6.97;3.50;;;;;;;32.73;6.64;100703.72;5009407;28;20061;-62
2021/04/10 05:51:24;;;;;;;6.95;3.17;;;;;;;32.82;6.66;100720.78;5010301;28;20053;-63
2021/04/10 05:53:50;;;;;;;6.60;3.22;;;;;;;32.74;6.83;100705.38;5009489;28;20112;-63
2021/04/10 05:56:15;;;;;;;8.40;3.22;;;;;;;32.88;6.32;100671.81;5010259;28;20087;-63
2021/04/10 05:58:41;;;;;;;6.00;3.38;;;;;;;33.67;5.98;100669.06;5007044;28;20104;-62
2021/04/10 06:01:06;;;;;;;6.45;3.47;;;;;;;34.31;6.16;100725.97;5008284;28;20045;-65
2021/04/10 06:03:32;;;;;;;4.90;3.05;;;;;;;34.04;6.06;100712.91;5008510;28;20038;-62
2021/04/10 06:05:58;;;;;;;9.93;3.60;;;;;;;34.05;5.79;100718.16;5009572;28;20122;-66
2021/04/10 06:08:23;;;;;;;5.95;3.15;;;;;;;34.40;5.51;100716.03;5010229;28;20386;-63
2021/04/10 06:10:49;;;;;;;6.85;2.80;;;;;;;34.97;5.49;100712.97;5010240;28;20033;-64
2021/04/10 06:13:15;;;;;;;5.82;2.72;;;;;;;35.48;5.31;100701.38;5009834;28;20486;-66
2021/04/10 06:15:40;;;;;;;4.70;2.85;;;;;;;35.85;4.99;100700.44;5010067;28;20533;-65
2021/04/10 06:18:06;;;;;;;6.40;3.08;;;;;;;35.98;4.76;100720.56;5010089;28;20070;-63
2021/04/10 06:20:32;;;;;;;5.05;3.00;;;;;;;35.72;4.84;100720.47;5010335;28;20042;-63
2021/04/10 06:22:58;;;;;;;5.85;2.58;;;;;;;35.55;4.84;100715.91;5008895;28;20457;-67
2021/04/10 06:25:24;;;;;;;6.65;3.00;;;;;;;35.85;5.17;100708.78;5010083;28;20362;-64
2021/04/10 06:27:49;;;;;;;4.97;2.70;;;;;;;36.24;4.59;100712.28;5008533;28;20567;-63
2021/04/10 06:30:15;;;;;;;7.35;3.20;;;;;;;36.40;4.22;100719.56;5009679;28;20044;-68
2021/04/10 06:32:41;;;;;;;4.55;2.70;;;;;;;36.35;4.34;100717.63;5010059;28;20073;-64
2021/04/10 06:35:07;;;;;;;6.50;2.58;;;;;;;36.59;4.39;100724.63;5010100;28;20100;-65
2021/04/10 06:37:32;;;;;;;6.07;2.90;;;;;;;36.50;4.23;100690.84;5010165;28;20041;-65
2021/04/10 06:39:58;;;;;;;6.97;2.80;;;;;;;37.00;3.88;100696.78;5009763;28;20049;-65
2021/04/10 06:42:25;;;;;;;7.22;2.67;;;;;;;37.49;3.95;100719.59;5009939;28;20815;-64
2021/04/10 06:44:51;;;;;;;7.22;2.83;;;;;;;37.76;3.92;100716.44;5009907;28;20045;-64
2021/04/10 06:47:21;;;;;;;4.03;2.53;;;;;;;38.15;4.07;100728.00;5009488;28;20088;-61
2021/04/10 06:49:51;;;;;;;5.97;2.60;;;;;;;37.98;3.66;100720.84;5006944;28;20128;-69
2021/04/10 06:52:17;;;;;;;6.18;2.45;;;;;;;37.99;3.78;100716.91;5008338;28;20192;-70
2021/04/10 06:54:46;;;;;;;5.93;2.38;;;;;;;37.91;3.78;100683.94;5009168;28;20041;-69
2021/04/10 06:57:18;;;;;;;6.40;2.47;;;;;;;38.38;3.13;100715.28;5009414;28;20082;-70
2021/04/10 07:00:04;;;;;;;4.53;2.13;;;;;;;38.89;3.27;100727.22;5009220;28;20563;-70
2021/04/10 07:02:31;;;;;;;4.00;2.80;;;;;;;38.03;3.49;100714.34;5007801;28;20386;-70
2021/04/10 07:04:58;;;;;;;3.08;2.50;;;;;;;37.85;3.52;100722.22;5011790;28;20509;-68
2021/04/10 07:07:24;;;;;;;5.25;2.58;;;;;;;38.30;3.21;100722.31;5008668;28;20087;-71
2021/04/10 07:09:50;;;;;;;8.85;2.47;;;;;;;38.43;3.31;100729.22;5009542;28;20041;-71
2021/04/10 07:12:16;;;;;;;8.30;2.50;;;;;;;38.62;3.26;100729.38;5009409;28;20056;-72
2021/04/10 07:14:41;;;;;;;5.10;2.47;;;;;;;38.76;3.32;100706.34;5010118;28;20048;-71
2021/04/10 07:17:07;;;;;;;5.43;2.60;;;;;;;39.56;2.98;100718.19;5012217;28;20026;-73
2021/04/10 07:19:32;;;;;;;3.00;2.15;;;;;;;39.80;2.83;100686.50;5011557;28;20042;-71
2021/04/10 07:22:09;;;;;;;5.90;2.47;;;;;;;40.33;3.14;100718.34;5011346;28;20284;-67
2021/04/10 07:24:44;;;;;;;8.70;3.05;;;;;;;41.01;2.55;100710.50;5011891;28;20592;-68
2021/04/10 07:27:24;;;;;;;4.90;2.25;;;;;;;41.00;2.56;100710.78;5010575;28;20049;-70
2021/04/10 07:29:51;;;;;;;4.07;2.00;;;;;;;41.14;2.47;100674.31;5010315;28;20037;-71
2021/04/10 07:32:26;;;;;;;7.35;2.45;;;;;;;41.40;2.15;100710.34;5011292;28;20061;-72
2021/04/10 07:34:51;;;;;;;;;;;;;;;43.70;1.99;100720.31;5010986;28;20029;-71
2021/04/10 07:37:47;;;;;;;3.35;2.58;;;;;;;41.85;2.48;100665.56;5012590;28;19923;-71
2021/04/10 07:40:18;;;;;;;4.47;2.38;;;;;;;40.81;2.34;100722.09;5011421;28;20147;-69
2021/04/10 07:42:45;;;;;;;7.50;2.45;;;;;;;40.13;2.65;100717.47;5012144;28;20047;-72
2021/04/10 07:45:32;;;;;;;4.03;2.40;;;;;;;40.22;2.82;100706.41;5011987;28;20034;-69
2021/04/10 07:48:03;;;;;;;4.47;2.30;;;;;;;38.98;2.69;100693.88;5010048;28;20160;-70
2021/04/10 07:50:30;;;;;;;5.70;2.20;;;;;;;38.27;2.97;100708.91;5012286;28;20058;-71
2021/04/10 07:52:56;;;;;;;2.75;1.90;;;;;;;37.78;3.25;100693.78;5012351;28;20045;-69
2021/04/10 07:55:35;;;;;;;2.50;2.20;;;;;;;37.61;3.62;100705.31;5012552;28;20042;-67
2021/04/10 07:58:25;;;;;;;6.93;2.42;;;;;;;36.92;4.00;100686.97;5012754;28;20041;-72
2021/04/10 08:00:55;;;;;;;5.15;2.03;;;;;;;35.79;4.07;100690.41;5011881;28;20038;-71
2021/04/10 08:03:27;;;;;;;2.65;1.75;;;;;;;34.96;4.36;100703.75;5009658;28;20029;-71
2021/04/10 08:05:53;;;;;;;4.70;1.80;;;;;;;32.76;5.30;100700.44;4999089;28;20052;-71
2021/04/10 08:08:21;;;;;;;5.05;2.55;;;;;;;30.11;6.27;100714.03;5012298;28;20041;-70
2021/04/10 08:10:47;;;;;;;2.90;2.10;;;;;;;27.66;7.76;100712.44;5012110;28;20508;-71
2021/04/10 08:13:13;;;;;;;3.42;2.70;;;;;;;25.56;9.07;100696.63;5011833;28;20034;-67
2021/04/10 08:15:39;;;;;;;5.03;2.20;;;;;;;23.74;10.02;100693.94;5010925;28;20060;-73
2021/04/10 08:18:23;;;;;;;3.45;1.90;;;;;;;22.26;11.36;100692.28;5011688;28;20065;-62
2021/04/10 08:20:50;;;;;;;4.40;2.05;;;;;;;20.85;12.53;100683.69;5011547;28;20041;-71
2021/04/10 08:23:17;;;;;;;6.88;1.95;;;;;;;19.93;13.29;100675.34;5011328;28;20041;-71
2021/04/10 08:25:43;;;;;;;7.30;2.13;;;;;;;19.34;13.94;100676.06;5010977;28;20461;-71
2021/04/10 08:28:09;;;;;;;4.68;2.13;;;;;;;18.96;14.32;100690.88;5009927;28;20062;-70
2021/04/10 08:30:34;;;;;;;8.27;2.20;;;;;;;18.38;14.62;100687.63;5010932;28;20133;-63
2021/04/10 08:33:00;;;;;;;5.90;1.95;;;;;;;18.05;14.19;100686.28;5011952;28;20478;-69
2021/04/10 08:35:26;;;;;;;1.70;1.58;;;;;;;17.64;14.51;100689.31;5010092;28;20076;-72
2021/04/10 08:38:02;;;;;;;7.60;2.00;;;;;;;17.33;14.87;100694.97;5010400;28;20038;-71
2021/04/10 08:40:30;;;;;;;2.33;1.50;;;;;;;16.91;14.76;100687.19;5012267;28;20108;-72
2021/04/10 08:42:57;;;;;;;3.25;1.65;;;;;;;16.39;15.26;100688.31;5009696;28;20104;-73
2021/04/10 08:45:34;;;;;;;6.43;1.85;;;;;;;16.10;16.00;100678.31;5010897;28;20084;-72
2021/04/10 08:48:02;;;;;;;11.00;2.20;;;;;;;15.83;16.01;100677.09;5011728;28;20033;-70
2021/04/10 08:50:33;;;;;;;5.95;1.67;;;;;;;15.48;16.12;100676.53;5011072;28;20160;-74
2021/04/10 08:53:04;;;;;;;5.80;2.22;;;;;;;15.34;15.96;100666.09;5010240;28;20038;-72
2021/04/10 08:55:30;;;;;;;6.95;1.95;;;;;;;15.20;15.86;100659.22;4992235;28;20030;-73
2021/04/10 08:57:56;;;;;;;2.35;1.40;;;;;;;15.18;16.21;100672.84;4991714;28;20042;-73
2021/04/10 09:00:23;;;;;;;4.20;1.95;;;;;;;15.06;16.53;100669.34;5006360;28;20038;-71
2021/04/10 09:02:57;;;;;;;4.35;1.40;;;;;;;15.04;16.44;100676.72;5006778;28;20034;-72
2021/04/10 09:05:25;;;;;;;8.50;1.90;;;;;;;14.85;16.75;100663.09;4997006;28;20051;-70
2021/04/10 09:07:50;;;;;;;3.60;1.90;;;;;;;14.73;16.94;100665.88;5007529;28;20034;-72
2021/04/10 09:10:26;;;;;;;5.35;1.92;;;;;;;14.56;17.55;100663.72;5009919;28;20133;-72
2021/04/10 09:13:10;;;;;;;7.82;1.95;;;;;;;14.39;17.91;100660.59;5002710;28;20533;-69
2021/04/10 09:15:36;;;;;;;2.58;1.60;;;;;;;14.25;18.10;100655.50;5004103;28;20111;-70
2021/04/10 09:18:05;;;;;;;4.78;1.75;;;;;;;14.22;18.74;100659.31;5008293;28;20080;-61
2021/04/10 09:20:43;;;;;;;2.70;1.73;;;;;;;14.21;18.58;100639.59;5009019;28;20030;-74
2021/04/10 09:23:33;;;;;;;5.03;2.13;;;;;;;14.21;18.49;100647.66;5004679;28;20034;-70
2021/04/10 09:26:05;;;;;;;4.65;1.80;;;;;;;14.14;18.73;100641.09;4999777;28;20045;-69
2021/04/10 09:28:32;;;;;;;3.78;2.00;;;;;;;14.10;18.56;100646.84;5007569;28;20135;-72
2021/04/10 09:30:58;;;;;;;4.38;1.75;;;;;;;13.99;18.57;100623.53;5006367;28;20536;-71
2021/04/10 09:33:33;;;;;;;4.95;1.77;;;;;;;14.11;18.48;100635.13;5010040;28;20441;-72
2021/04/10 09:35:59;;;;;;;2.45;1.77;;;;;;;14.03;18.79;100638.44;5009592;28;20029;-66
2021/04/10 09:38:41;;;;;;;4.47;1.83;;;;;;;14.02;19.05;100634.88;5009836;28;20057;-65
2021/04/10 09:41:06;;;;;;;9.60;2.08;;;;;;;14.05;18.84;100637.31;5009736;28;20092;-62
2021/04/10 09:43:32;;;;;;;4.65;1.60;;;;;;;13.91;18.80;100630.38;5007569;28;20038;-64
2021/04/10 09:45:58;;;;;;;4.47;2.00;;;;;;;13.90;18.83;100634.03;5006049;28;20038;-63
2021/04/10 09:48:25;;;;;;;32.92;2.92;;;;;;;13.87;18.99;100623.53;5003914;28;20018;-73
2021/04/10 09:50:51;;;;;;;6.47;2.22;;;;;;;13.91;18.77;100616.91;5010063;28;20052;-70
2021/04/10 09:53:24;;;;;;;6.65;2.25;;;;;;;13.79;19.23;100617.94;5009451;28;20034;-70
2021/04/10 09:56:08;;;;;;;5.78;2.50;;;;;;;13.74;19.03;100609.34;5006276;28;20037;-70
2021/04/10 09:58:36;;;;;;;8.25;2.38;;;;;;;13.73;19.23;100626.47;5002127;28;20034;-62
2021/04/10 10:01:11;;;;;;;6.05;2.53;;;;;;;13.48;19.12;100582.72;5006503;28;20037;-71
2021/04/10 10:03:36;;;;;;;5.10;2.40;;;;;;;13.86;19.17;100629.03;5002639;28;20034;-69
2021/04/10 10:06:03;;;;;;;4.80;2.05;;;;;;;13.92;19.04;100628.56;4999287;28;20038;-70
2021/04/10 10:08:33;;;;;;;6.32;2.17;;;;;;;14.13;18.70;100627.75;5007253;28;20564;-70
2021/04/10 10:11:05;;;;;;;4.72;3.00;;;;;;;14.17;18.52;100615.75;5005397;28;20042;-70
2021/04/10 10:13:32;;;;;;;6.80;2.85;;;;;;;14.14;18.44;100611.47;5005099;28;20068;-71
2021/04/10 10:15:58;;;;;;;4.35;2.30;;;;;;;13.72;18.59;100544.03;5004013;28;20355;-58
2021/04/10 10:18:32;;;;;;;3.35;2.42;;;;;;;14.13;18.60;100601.69;5008438;28;20128;-70
2021/04/10 10:21:08;;;;;;;5.78;2.08;;;;;;;14.02;18.50;100575.63;5002672;28;20417;-68
2021/04/10 10:23:52;;;;;;;7.00;1.92;;;;;;;13.95;18.54;100582.53;5005899;28;20164;-71
2021/04/10 10:26:35;;;;;;;6.05;2.00;;;;;;;14.12;18.39;100599.97;5003687;28;20121;-66
2021/04/10 10:29:08;;;;;;;6.85;1.92;;;;;;;13.92;18.51;100585.47;5008321;28;20064;-67
2021/04/10 10:31:53;;;;;;;3.65;2.53;;;;;;;13.90;18.79;100601.75;5009756;28;20069;-68
2021/04/10 10:34:21;;;;;;;5.57;2.33;;;;;;;13.90;18.78;100590.97;5008143;28;20113;-71
2021/04/10 10:36:51;;;;;;;5.35;1.92;;;;;;;13.88;18.99;100586.72;5003519;28;20042;-70
2021/04/10 10:39:23;;;;;;;4.03;2.17;;;;;;;14.00;18.87;100590.22;5009814;28;20060;-65
2021/04/10 10:41:48;;;;;;;3.97;2.20;;;;;;;13.97;19.21;100575.19;5012191;28;20149;-73
2021/04/10 10:44:17;;;;;;;7.82;2.53;;;;;;;14.05;19.13;100598.78;5013941;28;20440;-73
2021/04/10 10:46:43;;;;;;;3.63;1.90;;;;;;;13.44;18.81;100497.88;5013657;28;20065;-70
2021/04/10 10:49:09;;;;;;;5.35;1.90;;;;;;;13.95;18.76;100578.97;5013579;28;20076;-67
2021/04/10 10:51:37;;;;;;;5.15;2.05;;;;;;;13.72;19.26;100561.06;5011080;28;20030;-70
2021/04/10 10:54:03;;;;;;;4.38;1.95;;;;;;;13.81;19.14;100588.19;5009792;28;20049;-69
2021/04/10 10:56:30;;;;;;;5.10;2.53;;;;;;;13.82;19.34;100577.31;5012647;28;20037;-69
2021/04/10 10:59:01;;;;;;;3.78;1.85;;;;;;;13.93;18.93;100573.72;5014078;28;20038;-71
2021/04/10 11:01:28;;;;;;;10.85;2.08;;;;;;;13.93;18.74;100573.72;5012984;28;20143;-70
2021/04/10 11:04:24;;;;;;;5.68;1.98;;;;;;;13.87;18.80;100575.09;5007929;28;20034;-70
2021/04/10 11:06:52;;;;;;;3.38;1.60;;;;;;;13.87;18.76;100564.31;5017074;28;20458;-69
2021/04/10 11:09:23;;;;;;;3.13;1.90;;;;;;;13.88;18.63;100562.50;5012868;28;20034;-72
2021/04/10 11:11:53;;;;;;;3.25;1.85;;;;;;;13.86;18.93;100553.66;5009190;28;20096;-70
2021/04/10 11:14:42;;;;;;;4.10;1.75;;;;;;;13.98;19.04;100552.66;5008867;28;20034;-69
2021/04/10 11:17:09;;;;;;;5.22;2.03;;;;;;;13.80;18.99;100521.88;5012072;28;20038;-70
2021/04/10 11:19:36;;;;;;;9.32;2.20;;;;;;;13.90;19.18;100534.44;5012832;28;20048;-71
2021/04/10 11:22:04;;;;;;;2.85;2.08;;;;;;;13.84;19.01;100521.50;5012160;28;20038;-70
2021/04/10 11:24:48;;;;;;;4.63;1.50;;;;;;;13.98;18.77;100544.59;5012597;28;20476;-70
2021/04/10 11:27:19;;;;;;;6.88;2.10;;;;;;;13.97;18.78;100547.38;5012236;28;20038;-70
2021/04/10 11:29:53;;;;;;;6.38;1.80;;;;;;;13.90;18.76;100547.91;5013515;28;20045;-73
2021/04/10 11:32:39;;;;;;;6.00;1.92;;;;;;;13.81;18.58;100534.34;5012756;28;20052;-70
2021/04/10 11:35:16;;;;;;;5.87;1.77;;;;;;;13.70;18.74;100540.63;5012171;28;20516;-71
2021/04/10 11:37:45;;;;;;;3.63;1.42;;;;;;;13.59;18.81;100514.59;5011789;28;20355;-71